sensor_id;sensor_type;location;lat;lon;timestamp;pressure;altitude;pressure_sealevel;temperature;humidity
50702;BME280;36670;50.094;8.496;2024-02-14T00:00:09;100708.56;;;10.39;56.71
50702;BME280;36670;50.094;8.496;2024-02-14T00:02:44;100707.25;;;10.42;56.71
50702;BME280;36670;50.094;8.496;2024-02-14T00:05:10;100703.03;;;10.39;56.45
50702;BME280;36670;50.094;8.496;2024-02-14T00:07:37;100702.34;;;10.44;56.68
50702;BME280;36670;50.094;8.496;2024-02-14T00:10:05;100683.84;;;10.33;56.94
50702;BME280;36670;50.094;8.496;2024-02-14T00:12:34;100701.47;;;10.44;57.25
50702;BME280;36670;50.094;8.496;2024-02-14T00:15:01;100703.75;;;9.99;57.99
50702;BME280;36670;50.094;8.496;2024-02-14T00:17:29;100705.44;;;10.12;57.82
50702;BME280;36670;50.094;8.496;2024-02-14T00:19:54;100698.47;;;9.98;58.11
50702;BME280;36670;50.094;8.496;2024-02-14T00:22:20;100704.38;;;10.13;58.27
50702;BME280;36670;50.094;8.496;2024-02-14T00:24:45;100700.78;;;10.48;57.60
50702;BME280;36670;50.094;8.496;2024-02-14T00:27:10;100697.75;;;10.02;57.83
50702;BME280;36670;50.094;8.496;2024-02-14T00:29:36;100684.94;;;10.08;57.93
50702;BME280;36670;50.094;8.496;2024-02-14T00:32:02;100689.34;;;10.21;57.93
50702;BME280;36670;50.094;8.496;2024-02-14T00:34:27;100682.28;;;10.25;58.02
50702;BME280;36670;50.094;8.496;2024-02-14T00:36:53;100689.81;;;9.82;58.05
50702;BME280;36670;50.094;8.496;2024-02-14T00:39:18;100685.16;;;10.06;58.01
50702;BME280;36670;50.094;8.496;2024-02-14T00:41:46;100690.19;;;9.98;58.92
50702;BME280;36670;50.094;8.496;2024-02-14T00:44:12;100694.63;;;10.22;58.18
50702;BME280;36670;50.094;8.496;2024-02-14T00:46:38;100684.19;;;10.24;57.93
50702;BME280;36670;50.094;8.496;2024-02-14T00:49:03;100683.94;;;10.14;58.34
50702;BME280;36670;50.094;8.496;2024-02-14T00:51:29;100682.50;;;10.12;58.36
50702;BME280;36670;50.094;8.496;2024-02-14T00:53:54;100686.09;;;10.00;58.36
50702;BME280;36670;50.094;8.496;2024-02-14T00:56:19;100682.38;;;10.18;58.17
50702;BME280;36670;50.094;8.496;2024-02-14T00:58:45;100672.69;;;10.39;57.63
50702;BME280;36670;50.094;8.496;2024-02-14T01:01:10;100676.00;;;10.30;58.36
50702;BME280;36670;50.094;8.496;2024-02-14T01:03:37;100672.06;;;10.02;58.41
50702;BME280;36670;50.094;8.496;2024-02-14T01:06:02;100668.50;;;10.13;58.55
50702;BME280;36670;50.094;8.496;2024-02-14T01:08:28;100664.06;;;10.36;58.01
50702;BME280;36670;50.094;8.496;2024-02-14T01:10:54;100666.66;;;10.31;58.59
50702;BME280;36670;50.094;8.496;2024-02-14T01:13:19;100661.19;;;10.43;57.92
50702;BME280;36670;50.094;8.496;2024-02-14T01:15:45;100656.72;;;10.41;58.05
50702;BME280;36670;50.094;8.496;2024-02-14T01:18:10;100662.16;;;10.01;58.91
50702;BME280;36670;50.094;8.496;2024-02-14T01:20:35;100655.88;;;10.29;57.87
50702;BME280;36670;50.094;8.496;2024-02-14T01:23:02;100660.44;;;10.35;58.09
50702;BME280;36670;50.094;8.496;2024-02-14T01:25:28;100656.97;;;10.16;58.08
50702;BME280;36670;50.094;8.496;2024-02-14T01:27:53;100655.16;;;10.46;57.79
50702;BME280;36670;50.094;8.496;2024-02-14T01:30:19;100654.72;;;10.37;57.87
50702;BME280;36670;50.094;8.496;2024-02-14T01:32:44;100661.28;;;10.24;57.71
50702;BME280;36670;50.094;8.496;2024-02-14T01:35:10;100660.78;;;10.03;57.80
50702;BME280;36670;50.094;8.496;2024-02-14T01:37:35;100664.06;;;10.12;57.61
50702;BME280;36670;50.094;8.496;2024-02-14T01:40:01;100651.22;;;9.94;58.38
50702;BME280;36670;50.094;8.496;2024-02-14T01:42:27;100648.44;;;9.82;57.86
50702;BME280;36670;50.094;8.496;2024-02-14T01:44:53;100656.84;;;9.87;58.17
50702;BME280;36670;50.094;8.496;2024-02-14T01:47:20;100652.66;;;9.97;58.53
50702;BME280;36670;50.094;8.496;2024-02-14T01:49:45;100659.25;;;9.96;57.71
50702;BME280;36670;50.094;8.496;2024-02-14T01:52:12;100661.41;;;9.94;58.07
50702;BME280;36670;50.094;8.496;2024-02-14T01:54:39;100650.00;;;9.78;59.16
50702;BME280;36670;50.094;8.496;2024-02-14T01:57:05;100641.72;;;9.54;59.45
50702;BME280;36670;50.094;8.496;2024-02-14T01:59:32;100637.59;;;9.33;59.92
50702;BME280;36670;50.094;8.496;2024-02-14T02:02:00;100640.75;;;9.37;59.50
50702;BME280;36670;50.094;8.496;2024-02-14T02:04:25;100640.53;;;9.62;58.96
50702;BME280;36670;50.094;8.496;2024-02-14T02:06:51;100629.75;;;9.61;59.38
50702;BME280;36670;50.094;8.496;2024-02-14T02:09:21;100637.75;;;9.50;59.04
50702;BME280;36670;50.094;8.496;2024-02-14T02:11:51;100634.06;;;9.56;59.14
50702;BME280;36670;50.094;8.496;2024-02-14T02:14:21;100625.44;;;9.65;59.51
50702;BME280;36670;50.094;8.496;2024-02-14T02:16:47;100627.81;;;9.49;59.89
50702;BME280;36670;50.094;8.496;2024-02-14T02:19:13;100629.16;;;9.70;58.99
50702;BME280;36670;50.094;8.496;2024-02-14T02:21:41;100626.75;;;9.86;59.28
50702;BME280;36670;50.094;8.496;2024-02-14T02:24:09;100633.00;;;9.93;58.27
50702;BME280;36670;50.094;8.496;2024-02-14T02:26:34;100620.03;;;9.82;59.29
50702;BME280;36670;50.094;8.496;2024-02-14T02:29:00;100618.47;;;9.98;58.68
50702;BME280;36670;50.094;8.496;2024-02-14T02:31:25;100626.13;;;10.07;58.17
50702;BME280;36670;50.094;8.496;2024-02-14T02:33:51;100625.19;;;10.02;58.53
50702;BME280;36670;50.094;8.496;2024-02-14T02:36:18;100627.84;;;9.85;58.95
50702;BME280;36670;50.094;8.496;2024-02-14T02:38:43;100617.66;;;9.85;59.28
50702;BME280;36670;50.094;8.496;2024-02-14T02:41:12;100621.59;;;10.01;59.07
50702;BME280;36670;50.094;8.496;2024-02-14T02:43:40;100632.88;;;10.00;58.52
50702;BME280;36670;50.094;8.496;2024-02-14T02:46:05;100632.16;;;9.81;59.21
50702;BME280;36670;50.094;8.496;2024-02-14T02:48:33;100635.38;;;10.01;59.23
50702;BME280;36670;50.094;8.496;2024-02-14T02:50:59;100630.34;;;9.98;59.14
50702;BME280;36670;50.094;8.496;2024-02-14T02:53:25;100638.38;;;9.76;59.94
50702;BME280;36670;50.094;8.496;2024-02-14T02:55:50;100634.06;;;9.80;59.88
50702;BME280;36670;50.094;8.496;2024-02-14T02:58:17;100635.25;;;9.72;59.54
50702;BME280;36670;50.094;8.496;2024-02-14T03:00:48;100633.09;;;9.63;59.26
50702;BME280;36670;50.094;8.496;2024-02-14T03:03:16;100633.13;;;9.74;59.58
50702;BME280;36670;50.094;8.496;2024-02-14T03:05:42;100638.88;;;9.73;59.76
50702;BME280;36670;50.094;8.496;2024-02-14T03:08:10;100627.84;;;9.97;58.84
50702;BME280;36670;50.094;8.496;2024-02-14T03:10:39;100637.53;;;9.87;59.81
50702;BME280;36670;50.094;8.496;2024-02-14T03:13:06;100633.19;;;9.56;59.85
50702;BME280;36670;50.094;8.496;2024-02-14T03:15:34;100630.69;;;9.43;60.21
50702;BME280;36670;50.094;8.496;2024-02-14T03:18:00;100629.81;;;9.42;60.69
50702;BME280;36670;50.094;8.496;2024-02-14T03:20:26;100632.38;;;9.55;60.56
50702;BME280;36670;50.094;8.496;2024-02-14T03:22:54;100623.03;;;9.56;60.75
50702;BME280;36670;50.094;8.496;2024-02-14T03:25:20;100629.13;;;9.59;60.75
50702;BME280;36670;50.094;8.496;2024-02-14T03:27:46;100627.22;;;9.59;60.60
50702;BME280;36670;50.094;8.496;2024-02-14T03:30:18;100632.38;;;9.44;60.95
50702;BME280;36670;50.094;8.496;2024-02-14T03:32:50;100633.69;;;9.77;60.74
50702;BME280;36670;50.094;8.496;2024-02-14T03:35:17;100632.63;;;9.78;60.87
50702;BME280;36670;50.094;8.496;2024-02-14T03:37:45;100624.47;;;9.71;60.79
50702;BME280;36670;50.094;8.496;2024-02-14T03:40:13;100636.34;;;9.71;59.96
50702;BME280;36670;50.094;8.496;2024-02-14T03:42:39;100644.22;;;9.56;60.84
50702;BME280;36670;50.094;8.496;2024-02-14T03:45:06;100649.75;;;9.68;60.63
50702;BME280;36670;50.094;8.496;2024-02-14T03:47:32;100650.13;;;9.83;60.87
50702;BME280;36670;50.094;8.496;2024-02-14T03:49:59;100646.41;;;9.66;60.99
50702;BME280;36670;50.094;8.496;2024-02-14T03:52:25;100639.72;;;9.85;60.51
50702;BME280;36670;50.094;8.496;2024-02-14T03:54:50;100645.22;;;9.97;60.42
50702;BME280;36670;50.094;8.496;2024-02-14T03:57:19;100649.41;;;9.76;60.29
50702;BME280;36670;50.094;8.496;2024-02-14T03:59:44;100648.09;;;10.14;60.17
50702;BME280;36670;50.094;8.496;2024-02-14T04:02:10;100660.44;;;9.88;60.05
50702;BME280;36670;50.094;8.496;2024-02-14T04:04:41;100662.00;;;10.07;60.00
50702;BME280;36670;50.094;8.496;2024-02-14T04:07:07;100656.84;;;10.23;59.77
50702;BME280;36670;50.094;8.496;2024-02-14T04:09:36;100651.94;;;10.37;59.49
50702;BME280;36670;50.094;8.496;2024-02-14T04:12:01;100652.03;;;10.42;58.77
50702;BME280;36670;50.094;8.496;2024-02-14T04:14:27;100663.94;;;10.43;58.99
50702;BME280;36670;50.094;8.496;2024-02-14T04:16:53;100659.00;;;10.33;58.91
50702;BME280;36670;50.094;8.496;2024-02-14T04:19:18;100665.84;;;10.30;59.39
50702;BME280;36670;50.094;8.496;2024-02-14T04:21:44;100659.00;;;10.21;59.53
50702;BME280;36670;50.094;8.496;2024-02-14T04:24:09;100667.06;;;10.34;58.84
50702;BME280;36670;50.094;8.496;2024-02-14T04:26:35;100657.78;;;10.52;59.13
50702;BME280;36670;50.094;8.496;2024-02-14T04:29:01;100657.31;;;10.44;59.10
50702;BME280;36670;50.094;8.496;2024-02-14T04:31:27;100651.16;;;10.53;58.76
50702;BME280;36670;50.094;8.496;2024-02-14T04:33:55;100656.72;;;10.41;58.58
50702;BME280;36670;50.094;8.496;2024-02-14T04:36:21;100660.31;;;10.18;59.23
50702;BME280;36670;50.094;8.496;2024-02-14T04:38:48;100653.50;;;9.97;59.70
50702;BME280;36670;50.094;8.496;2024-02-14T04:41:15;100652.75;;;10.02;59.58
50702;BME280;36670;50.094;8.496;2024-02-14T04:43:40;100660.59;;;10.05;59.34
50702;BME280;36670;50.094;8.496;2024-02-14T04:46:06;100655.88;;;9.94;59.73
50702;BME280;36670;50.094;8.496;2024-02-14T04:48:33;100648.81;;;9.62;60.61
50702;BME280;36670;50.094;8.496;2024-02-14T04:50:58;100650.88;;;9.79;60.30
50702;BME280;36670;50.094;8.496;2024-02-14T04:53:24;100656.03;;;9.87;60.51
50702;BME280;36670;50.094;8.496;2024-02-14T04:55:50;100654.59;;;9.84;60.30
50702;BME280;36670;50.094;8.496;2024-02-14T04:58:15;100656.97;;;9.81;60.21
50702;BME280;36670;50.094;8.496;2024-02-14T05:00:41;100653.03;;;9.88;60.30
50702;BME280;36670;50.094;8.496;2024-02-14T05:03:06;100647.34;;;9.48;60.83
50702;BME280;36670;50.094;8.496;2024-02-14T05:05:32;100646.88;;;9.63;60.66
50702;BME280;36670;50.094;8.496;2024-02-14T05:07:59;100641.28;;;9.81;60.87
50702;BME280;36670;50.094;8.496;2024-02-14T05:10:24;100652.03;;;9.71;60.64
50702;BME280;36670;50.094;8.496;2024-02-14T05:12:50;100650.25;;;9.77;60.83
50702;BME280;36670;50.094;8.496;2024-02-14T05:15:15;100646.66;;;9.88;60.73
50702;BME280;36670;50.094;8.496;2024-02-14T05:17:44;100638.28;;;9.83;60.57
50702;BME280;36670;50.094;8.496;2024-02-14T05:20:14;100611.75;;;9.70;61.23
50702;BME280;36670;50.094;8.496;2024-02-14T05:22:40;100611.03;;;9.51;61.54
50702;BME280;36670;50.094;8.496;2024-02-14T05:25:05;100645.78;;;9.52;61.34
50702;BME280;36670;50.094;8.496;2024-02-14T05:27:34;100651.06;;;9.53;61.64
50702;BME280;36670;50.094;8.496;2024-02-14T05:29:59;100653.34;;;9.68;60.89
50702;BME280;36670;50.094;8.496;2024-02-14T05:32:25;100652.31;;;9.81;61.18
50702;BME280;36670;50.094;8.496;2024-02-14T05:34:51;100644.25;;;9.91;61.22
50702;BME280;36670;50.094;8.496;2024-02-14T05:37:16;100644.13;;;9.86;60.99
50702;BME280;36670;50.094;8.496;2024-02-14T05:39:42;100642.22;;;9.63;61.01
50702;BME280;36670;50.094;8.496;2024-02-14T05:42:08;100639.81;;;9.67;61.33
50702;BME280;36670;50.094;8.496;2024-02-14T05:44:33;100637.06;;;9.55;61.62
50702;BME280;36670;50.094;8.496;2024-02-14T05:46:59;100644.47;;;9.43;61.84
50702;BME280;36670;50.094;8.496;2024-02-14T05:49:25;100644.34;;;9.61;61.28
50702;BME280;36670;50.094;8.496;2024-02-14T05:51:51;100651.34;;;9.76;61.54
50702;BME280;36670;50.094;8.496;2024-02-14T05:54:18;100646.03;;;9.62;61.47
50702;BME280;36670;50.094;8.496;2024-02-14T05:56:44;100654.22;;;9.81;60.99
50702;BME280;36670;50.094;8.496;2024-02-14T05:59:10;100655.41;;;9.85;61.61
50702;BME280;36670;50.094;8.496;2024-02-14T06:01:35;100663.56;;;9.91;61.26
50702;BME280;36670;50.094;8.496;2024-02-14T06:04:01;100663.19;;;9.88;60.78
50702;BME280;36670;50.094;8.496;2024-02-14T06:06:26;100656.13;;;10.04;61.12
50702;BME280;36670;50.094;8.496;2024-02-14T06:08:52;100667.75;;;10.18;61.09
50702;BME280;36670;50.094;8.496;2024-02-14T06:11:17;100668.84;;;10.17;60.35
50702;BME280;36670;50.094;8.496;2024-02-14T06:13:49;100671.13;;;9.96;61.23
50702;BME280;36670;50.094;8.496;2024-02-14T06:16:14;100674.59;;;10.03;61.31
50702;BME280;36670;50.094;8.496;2024-02-14T06:18:40;100687.06;;;10.18;60.48
50702;BME280;36670;50.094;8.496;2024-02-14T06:21:06;100685.06;;;10.13;61.14
50702;BME280;36670;50.094;8.496;2024-02-14T06:23:31;100688.53;;;10.20;60.85
50702;BME280;36670;50.094;8.496;2024-02-14T06:25:58;100674.00;;;10.25;60.66
50702;BME280;36670;50.094;8.496;2024-02-14T06:28:23;100687.44;;;9.86;61.35
50702;BME280;36670;50.094;8.496;2024-02-14T06:30:49;100686.09;;;10.00;61.51
50702;BME280;36670;50.094;8.496;2024-02-14T06:33:14;100680.72;;;10.05;61.91
50702;BME280;36670;50.094;8.496;2024-02-14T06:35:40;100682.88;;;10.03;61.04
50702;BME280;36670;50.094;8.496;2024-02-14T06:38:05;100677.34;;;9.91;61.82
50702;BME280;36670;50.094;8.496;2024-02-14T06:40:32;100685.75;;;10.08;61.13
50702;BME280;36670;50.094;8.496;2024-02-14T06:42:57;100690.09;;;10.40;60.75
50702;BME280;36670;50.094;8.496;2024-02-14T06:45:27;100698.34;;;10.52;60.54
50702;BME280;36670;50.094;8.496;2024-02-14T06:47:53;100688.78;;;10.43;60.88
50702;BME280;36670;50.094;8.496;2024-02-14T06:50:19;100694.88;;;10.45;60.58
50702;BME280;36670;50.094;8.496;2024-02-14T06:52:45;100697.63;;;9.97;61.79
50702;BME280;36670;50.094;8.496;2024-02-14T06:55:10;100701.00;;;10.11;61.49
50702;BME280;36670;50.094;8.496;2024-02-14T06:57:36;100708.91;;;10.19;61.63
50702;BME280;36670;50.094;8.496;2024-02-14T07:00:03;100719.22;;;10.12;61.72
50702;BME280;36670;50.094;8.496;2024-02-14T07:02:31;100710.81;;;10.31;61.37
50702;BME280;36670;50.094;8.496;2024-02-14T07:04:56;100716.75;;;10.34;61.76
50702;BME280;36670;50.094;8.496;2024-02-14T07:07:22;100714.53;;;10.13;61.75
50702;BME280;36670;50.094;8.496;2024-02-14T07:09:47;100717.78;;;10.21;62.07
50702;BME280;36670;50.094;8.496;2024-02-14T07:12:13;100704.59;;;10.23;61.99
50702;BME280;36670;50.094;8.496;2024-02-14T07:14:38;100711.06;;;10.17;62.05
50702;BME280;36670;50.094;8.496;2024-02-14T07:17:04;100709.28;;;10.23;62.00
50702;BME280;36670;50.094;8.496;2024-02-14T07:19:29;100719.38;;;10.41;61.92
50702;BME280;36670;50.094;8.496;2024-02-14T07:21:55;100705.41;;;10.24;62.15
50702;BME280;36670;50.094;8.496;2024-02-14T07:24:20;100709.28;;;10.23;62.53
50702;BME280;36670;50.094;8.496;2024-02-14T07:26:45;100708.44;;;10.46;61.71
50702;BME280;36670;50.094;8.496;2024-02-14T07:29:11;100705.38;;;10.83;61.66
50702;BME280;36670;50.094;8.496;2024-02-14T07:31:37;100713.28;;;10.91;61.88
50702;BME280;36670;50.094;8.496;2024-02-14T07:34:02;100723.09;;;10.99;60.57
50702;BME280;36670;50.094;8.496;2024-02-14T07:36:29;100730.03;;;11.14;60.96
50702;BME280;36670;50.094;8.496;2024-02-14T07:38:54;100733.03;;;11.12;61.02
50702;BME280;36670;50.094;8.496;2024-02-14T07:41:20;100719.97;;;11.24;60.33
50702;BME280;36670;50.094;8.496;2024-02-14T07:43:45;100723.19;;;11.04;60.71
50702;BME280;36670;50.094;8.496;2024-02-14T07:46:11;100737.50;;;11.01;60.86
50702;BME280;36670;50.094;8.496;2024-02-14T07:48:37;100726.78;;;11.05;60.16
50702;BME280;36670;50.094;8.496;2024-02-14T07:51:07;100727.16;;;10.97;61.10
50702;BME280;36670;50.094;8.496;2024-02-14T07:53:32;100725.75;;;10.94;61.08
50702;BME280;36670;50.094;8.496;2024-02-14T07:55:58;100725.97;;;11.04;60.65
50702;BME280;36670;50.094;8.496;2024-02-14T07:58:23;100730.84;;;10.73;61.04
50702;BME280;36670;50.094;8.496;2024-02-14T08:00:48;100735.72;;;10.95;61.42
50702;BME280;36670;50.094;8.496;2024-02-14T08:03:14;100738.09;;;11.03;61.09
50702;BME280;36670;50.094;8.496;2024-02-14T08:05:39;100738.78;;;11.10;61.30
50702;BME280;36670;50.094;8.496;2024-02-14T08:08:06;100741.22;;;10.95;61.67
50702;BME280;36670;50.094;8.496;2024-02-14T08:10:32;100742.34;;;11.23;60.69
50702;BME280;36670;50.094;8.496;2024-02-14T08:12:57;100736.19;;;11.33;61.00
50702;BME280;36670;50.094;8.496;2024-02-14T08:15:24;100734.44;;;11.15;61.33
50702;BME280;36670;50.094;8.496;2024-02-14T08:17:49;100744.09;;;11.12;61.39
50702;BME280;36670;50.094;8.496;2024-02-14T08:20:15;100729.81;;;11.32;61.28
50702;BME280;36670;50.094;8.496;2024-02-14T08:22:40;100736.34;;;11.26;61.80
50702;BME280;36670;50.094;8.496;2024-02-14T08:25:06;100732.44;;;11.39;61.36
50702;BME280;36670;50.094;8.496;2024-02-14T08:27:32;100733.69;;;11.48;61.40
50702;BME280;36670;50.094;8.496;2024-02-14T08:29:57;100726.56;;;11.35;61.20
50702;BME280;36670;50.094;8.496;2024-02-14T08:32:23;100727.97;;;11.67;61.69
50702;BME280;36670;50.094;8.496;2024-02-14T08:34:48;100728.06;;;11.72;61.34
50702;BME280;36670;50.094;8.496;2024-02-14T08:37:15;100715.66;;;11.91;60.95
50702;BME280;36670;50.094;8.496;2024-02-14T08:39:41;100724.19;;;11.73;61.78
50702;BME280;36670;50.094;8.496;2024-02-14T08:42:06;100729.31;;;11.81;61.49
50702;BME280;36670;50.094;8.496;2024-02-14T08:44:35;100725.47;;;11.65;62.04
50702;BME280;36670;50.094;8.496;2024-02-14T08:47:03;100734.84;;;11.81;61.37
50702;BME280;36670;50.094;8.496;2024-02-14T08:49:28;100735.19;;;11.85;61.82
50702;BME280;36670;50.094;8.496;2024-02-14T08:51:53;100737.28;;;11.77;61.38
50702;BME280;36670;50.094;8.496;2024-02-14T08:54:19;100749.41;;;12.05;61.59
50702;BME280;36670;50.094;8.496;2024-02-14T08:56:46;100748.13;;;11.96;61.39
50702;BME280;36670;50.094;8.496;2024-02-14T08:59:12;100737.72;;;11.86;61.76
50702;BME280;36670;50.094;8.496;2024-02-14T09:01:38;100746.31;;;11.90;61.57
50702;BME280;36670;50.094;8.496;2024-02-14T09:04:04;100754.97;;;11.76;61.98
50702;BME280;36670;50.094;8.496;2024-02-14T09:06:30;100757.28;;;11.97;61.67
50702;BME280;36670;50.094;8.496;2024-02-14T09:08:57;100761.47;;;11.99;60.85
50702;BME280;36670;50.094;8.496;2024-02-14T09:11:23;100761.66;;;12.26;61.47
50702;BME280;36670;50.094;8.496;2024-02-14T09:13:48;100762.22;;;12.28;61.29
50702;BME280;36670;50.094;8.496;2024-02-14T09:16:18;100757.19;;;12.25;61.26
50702;BME280;36670;50.094;8.496;2024-02-14T09:18:47;100762.88;;;12.36;61.32
50702;BME280;36670;50.094;8.496;2024-02-14T09:21:12;100761.88;;;12.42;60.81
50702;BME280;36670;50.094;8.496;2024-02-14T09:23:39;100761.53;;;12.38;60.30
50702;BME280;36670;50.094;8.496;2024-02-14T09:26:05;100753.34;;;12.26;60.59
50702;BME280;36670;50.094;8.496;2024-02-14T09:28:31;100767.00;;;11.99;61.26
50702;BME280;36670;50.094;8.496;2024-02-14T09:30:58;100771.56;;;11.93;61.36
50702;BME280;36670;50.094;8.496;2024-02-14T09:33:24;100768.03;;;12.10;61.12
50702;BME280;36670;50.094;8.496;2024-02-14T09:35:49;100765.91;;;12.51;61.18
50702;BME280;36670;50.094;8.496;2024-02-14T09:38:17;100761.63;;;12.43;60.92
50702;BME280;36670;50.094;8.496;2024-02-14T09:40:42;100752.97;;;12.40;61.52
50702;BME280;36670;50.094;8.496;2024-02-14T09:43:32;100758.44;;;12.35;60.89
50702;BME280;36670;50.094;8.496;2024-02-14T09:45:58;100764.13;;;12.45;61.42
50702;BME280;36670;50.094;8.496;2024-02-14T09:48:23;100764.16;;;12.28;61.53
50702;BME280;36670;50.094;8.496;2024-02-14T09:50:52;100751.78;;;12.36;61.30
50702;BME280;36670;50.094;8.496;2024-02-14T09:53:18;100767.84;;;12.00;62.59
50702;BME280;36670;50.094;8.496;2024-02-14T09:55:46;100763.06;;;11.95;62.80
50702;BME280;36670;50.094;8.496;2024-02-14T09:58:12;100762.03;;;12.35;61.79
50702;BME280;36670;50.094;8.496;2024-02-14T10:00:37;100762.72;;;12.42;61.85
50702;BME280;36670;50.094;8.496;2024-02-14T10:03:03;100765.91;;;12.34;62.41
50702;BME280;36670;50.094;8.496;2024-02-14T10:05:28;100765.66;;;12.53;61.77
50702;BME280;36670;50.094;8.496;2024-02-14T10:07:56;100765.91;;;12.34;62.41
50702;BME280;36670;50.094;8.496;2024-02-14T10:10:21;100769.81;;;12.72;62.50
50702;BME280;36670;50.094;8.496;2024-02-14T10:12:47;100767.72;;;12.45;62.63
50702;BME280;36670;50.094;8.496;2024-02-14T10:15:12;100779.63;;;12.63;62.45
50702;BME280;36670;50.094;8.496;2024-02-14T10:17:41;100777.03;;;12.56;62.62
50702;BME280;36670;50.094;8.496;2024-02-14T10:20:07;100776.00;;;12.23;63.11
50702;BME280;36670;50.094;8.496;2024-02-14T10:22:35;100776.13;;;12.51;62.43
50702;BME280;36670;50.094;8.496;2024-02-14T10:25:02;100780.31;;;12.53;62.79
50702;BME280;36670;50.094;8.496;2024-02-14T10:27:30;100785.25;;;12.68;62.57
50702;BME280;36670;50.094;8.496;2024-02-14T10:29:56;100790.03;;;12.73;61.49
50702;BME280;36670;50.094;8.496;2024-02-14T10:32:22;100790.03;;;12.73;61.93
50702;BME280;36670;50.094;8.496;2024-02-14T10:34:49;100793.25;;;12.87;62.37
50702;BME280;36670;50.094;8.496;2024-02-14T10:37:15;100787.50;;;12.71;62.04
50702;BME280;36670;50.094;8.496;2024-02-14T10:39:44;100794.00;;;12.60;62.21
50702;BME280;36670;50.094;8.496;2024-02-14T10:42:12;100796.22;;;12.80;61.82
50702;BME280;36670;50.094;8.496;2024-02-14T10:44:37;100806.28;;;12.86;62.08
50702;BME280;36670;50.094;8.496;2024-02-14T10:47:06;100811.28;;;12.67;62.06
50702;BME280;36670;50.094;8.496;2024-02-14T10:49:36;100799.06;;;12.85;61.63
50702;BME280;36670;50.094;8.496;2024-02-14T10:52:05;100789.16;;;12.89;61.89
50702;BME280;36670;50.094;8.496;2024-02-14T10:54:34;100789.31;;;12.83;61.92
50702;BME280;36670;50.094;8.496;2024-02-14T10:57:04;100792.19;;;12.88;62.19
50702;BME280;36670;50.094;8.496;2024-02-14T10:59:32;100782.72;;;13.06;62.43
50702;BME280;36670;50.094;8.496;2024-02-14T11:01:59;100784.50;;;13.17;61.97
50702;BME280;36670;50.094;8.496;2024-02-14T11:04:25;100785.94;;;13.20;62.00
50702;BME280;36670;50.094;8.496;2024-02-14T11:06:53;100779.81;;;13.40;61.54
50702;BME280;36670;50.094;8.496;2024-02-14T11:09:21;100784.38;;;13.51;61.09
50702;BME280;36670;50.094;8.496;2024-02-14T11:11:47;100788.47;;;13.71;61.44
50702;BME280;36670;50.094;8.496;2024-02-14T11:14:17;100779.72;;;13.84;60.40
50702;BME280;36670;50.094;8.496;2024-02-14T11:16:47;100774.31;;;13.99;60.00
50702;BME280;36670;50.094;8.496;2024-02-14T11:19:13;100781.34;;;14.07;60.31
50702;BME280;36670;50.094;8.496;2024-02-14T11:21:43;100779.09;;;13.77;60.49
50702;BME280;36670;50.094;8.496;2024-02-14T11:24:11;100774.75;;;13.59;60.50
50702;BME280;36670;50.094;8.496;2024-02-14T11:26:51;100767.47;;;13.53;61.02
50702;BME280;36670;50.094;8.496;2024-02-14T11:29:17;100755.13;;;13.65;60.74
50702;BME280;36670;50.094;8.496;2024-02-14T11:31:47;100752.88;;;14.27;60.48
50702;BME280;36670;50.094;8.496;2024-02-14T11:34:16;100755.94;;;14.26;60.39
50702;BME280;36670;50.094;8.496;2024-02-14T11:36:42;100754.63;;;14.39;59.76
50702;BME280;36670;50.094;8.496;2024-02-14T11:39:08;100763.34;;;14.52;60.10
50702;BME280;36670;50.094;8.496;2024-02-14T11:41:34;100752.91;;;14.70;58.98
50702;BME280;36670;50.094;8.496;2024-02-14T11:44:06;100757.28;;;14.61;59.93
50702;BME280;36670;50.094;8.496;2024-02-14T11:46:33;100761.66;;;14.51;59.67
50702;BME280;36670;50.094;8.496;2024-02-14T11:48:59;100760.06;;;14.23;59.09
50702;BME280;36670;50.094;8.496;2024-02-14T11:51:37;100756.84;;;13.99;59.25
50702;BME280;36670;50.094;8.496;2024-02-14T11:54:04;100763.44;;;13.93;60.09
50702;BME280;36670;50.094;8.496;2024-02-14T11:56:32;100761.31;;;13.73;59.98
50702;BME280;36670;50.094;8.496;2024-02-14T11:59:01;100764.03;;;13.68;59.94
50702;BME280;36670;50.094;8.496;2024-02-14T12:01:29;100757.00;;;13.87;59.76
50702;BME280;36670;50.094;8.496;2024-02-14T12:03:57;100761.50;;;13.66;60.54
50702;BME280;36670;50.094;8.496;2024-02-14T12:06:22;100761.94;;;13.80;60.13
50702;BME280;36670;50.094;8.496;2024-02-14T12:08:48;100772.75;;;13.81;59.48
50702;BME280;36670;50.094;8.496;2024-02-14T12:11:13;100770.63;;;13.61;60.30
50702;BME280;36670;50.094;8.496;2024-02-14T12:13:39;100775.31;;;13.61;60.54
50702;BME280;36670;50.094;8.496;2024-02-14T12:16:08;100771.78;;;13.65;60.32
50702;BME280;36670;50.094;8.496;2024-02-14T12:18:35;100762.13;;;13.73;60.30
50702;BME280;36670;50.094;8.496;2024-02-14T12:21:07;100767.63;;;13.41;61.12
50702;BME280;36670;50.094;8.496;2024-02-14T12:23:33;100763.34;;;13.33;61.76
50702;BME280;36670;50.094;8.496;2024-02-14T12:26:03;100760.75;;;13.48;61.27
50702;BME280;36670;50.094;8.496;2024-02-14T12:28:30;100764.25;;;13.39;61.77
50702;BME280;36670;50.094;8.496;2024-02-14T12:30:59;100757.34;;;13.36;62.16
50702;BME280;36670;50.094;8.496;2024-02-14T12:33:26;100758.84;;;13.49;61.82
50702;BME280;36670;50.094;8.496;2024-02-14T12:35:54;100757.53;;;13.35;61.71
50702;BME280;36670;50.094;8.496;2024-02-14T12:38:20;100759.34;;;13.68;61.32
50702;BME280;36670;50.094;8.496;2024-02-14T12:40:46;100754.97;;;13.50;61.66
50702;BME280;36670;50.094;8.496;2024-02-14T12:43:13;100751.09;;;13.78;62.07
50702;BME280;36670;50.094;8.496;2024-02-14T12:45:38;100758.63;;;14.15;60.77
50702;BME280;36670;50.094;8.496;2024-02-14T12:48:08;100752.09;;;13.99;60.81